Welkom op de website van Weerstation Hoek van Holland.

Onweer radar Meer informatie blitzortung!


Regen radar Meer informatie rain snow radar



METAR rapporten vliegvelden

   
EHRD - Rotterdam International Airport, NL
Afstand tot: Oost 31 km
Gewijzigd: 21-07-2019 05:55
Grotendeels bewolkt  
Grotendeels bewolkt  
   Wind: Westen 7.4 km/h
Wind: Westen 7.4 km/h
Temperatuur: 17°C
Dauwpunt: 14°C
Vochtigheid: 83%
Barometer: 1016 hPa
Bewolking: Mostly Cloudy
Zicht: meer dan 10 km
Bewolking: Gedeeltelijk bewolkt 4000 ft,
Grotendeels bewolkt 4500 ft,
Grotendeels bewolkt 4900 ft
EHRD 210355Z AUTO 27004KT 240V300 9999 SCT040 BKN045 BKN049 17/14 Q1016 NOSIG
EHAM - Amsterdam Schiphol, NL
Afstand tot: Noord 17 km
Gewijzigd: 21-07-2019 05:55
Licht bewolkt  
Licht bewolkt  
   Wind: Westen 7.4 km/h
Wind: Westen 7.4 km/h
Temperatuur: 15°C
Dauwpunt: 12°C
Vochtigheid: 82%
Barometer: 1016 hPa
Bewolking: Few Clouds
Zicht: meer dan 10 km
Bewolking: Licht bewolkt 4700 ft
EHAM 210355Z 28004KT 9999 FEW047 15/12 Q1016 NOSIG
EBAW - Antwerpen/Deurne, B
Afstand tot: Zuid 138 km
Gewijzigd: 21-07-2019 05:50
Helder  
Helder  
   Wind: WZW 11.1 km/h
Wind: WZW 11.1 km/h
Temperatuur: 16°C
Dauwpunt: 14°C
Vochtigheid: 88%
Barometer: 1018 hPa
Zicht: meer dan 10 km
Bewolking: Helder ft
EBAW 210350Z AUTO 24006KT 210V270 CAVOK 16/14 Q1018
EHEH - Eindhoven, NL
Afstand tot: OZO 140 km
Gewijzigd: 21-07-2019 06:05
Grotendeels bewolkt  
Grotendeels bewolkt  
   Wind: ZW 11.1 km/h
Wind: ZW 11.1 km/h
Temperatuur: 14°C
Dauwpunt: 13°C
Vochtigheid: 94%
Barometer: 1017 hPa
Bewolking: Mostly Cloudy
Zicht: meer dan 10 km
Bewolking: Grotendeels bewolkt 1100 ft,
Grotendeels bewolkt 27000 ft
EHEH 210405Z AUTO 22006KT 180V320 9999 BKN011 BKN270 14/13 Q1017 GRN
  

Script ontwikkeld door  Saratoga-weather.org Aangepast voor de template door  Weerstation Leuven

Apparatuur in gebruik:

Weerstation
Davis VP2

Weerprogramma
Meteobridge

Weercomputer
meteobridge met meteostick

Webleverancier
Strato

Davis VP2

Meteobridge

meteobridge met meteostick

Strato